Time;durP1;ratioP1;P1;durP2;ratioP2;P2;SDS_P1;SDS_P2;PMS_P1;PMS_P2;Temp;Humidity;BMP_temperature;BMP_pressure;BME280_temperature;BME280_humidity;BME280_pressure;Samples;Min_cycle;Max_cycle;Signal;HPM_P1;HPM_P2
2021/03/15 00:07:05;;;;;;;10.38;5.38;;;;;;;3.22;100.00;100191.13;20788231;28;20096;-71
2021/03/15 00:17:06;;;;;;;10.52;4.38;;;;;;;3.10;100.00;100169.97;20738400;28;20054;-71
2021/03/15 00:27:07;;;;;;;13.10;4.50;;;;;;;2.90;100.00;100173.06;20758557;28;20045;-71
2021/03/15 00:37:08;;;;;;;10.75;4.38;;;;;;;2.91;100.00;100183.38;20832922;28;20057;-71
2021/03/15 00:47:09;;;;;;;11.55;4.25;;;;;;;2.81;100.00;100178.47;20832976;28;20124;-71
2021/03/15 00:57:10;;;;;;;11.90;4.30;;;;;;;2.74;100.00;100167.47;20832998;28;20520;-71
2021/03/15 01:07:12;;;;;;;12.77;5.05;;;;;;;2.81;100.00;100157.78;20830915;28;20394;-71
2021/03/15 01:17:14;;;;;;;13.20;4.78;;;;;;;2.75;100.00;100142.44;20831164;28;20389;-71
2021/03/15 01:27:15;;;;;;;16.08;5.18;;;;;;;2.89;100.00;100140.38;20830054;28;20049;-72
2021/03/15 01:37:16;;;;;;;10.48;4.95;;;;;;;2.86;100.00;100124.94;20829566;28;20045;-71
2021/03/15 01:47:18;;;;;;;14.70;5.13;;;;;;;2.98;100.00;100106.50;20828899;28;20428;-71
2021/03/15 01:57:20;;;;;;;11.32;4.38;;;;;;;3.01;100.00;100085.72;20829123;28;20475;-71
2021/03/15 02:07:21;;;;;;;11.90;4.32;;;;;;;3.07;100.00;100057.13;20823643;28;20497;-72
2021/03/15 02:17:34;;;;;;;12.90;3.95;;;;;;;3.07;100.00;100039.03;20813606;28;20409;-72
2021/03/15 02:28:06;;;;;;;13.43;4.32;;;;;;;3.14;100.00;100017.28;20825469;28;20056;-72
2021/03/15 02:38:10;;;;;;;11.95;4.00;;;;;;;3.08;100.00;99993.34;20823975;28;20045;-71
2021/03/15 02:48:13;;;;;;;12.40;4.50;;;;;;;3.19;100.00;99974.03;20823997;28;20103;-71
2021/03/15 02:58:17;;;;;;;12.05;4.80;;;;;;;3.19;100.00;99962.81;20823450;28;20493;-71
2021/03/15 03:08:19;;;;;;;11.30;4.90;;;;;;;3.23;100.00;99938.56;20821748;28;20052;-71
2021/03/15 03:18:23;;;;;;;15.38;4.35;;;;;;;3.26;100.00;99933.28;20821487;28;20061;-72
2021/03/15 03:28:24;;;;;;;11.32;4.22;;;;;;;3.36;100.00;99914.81;20821495;28;20107;-72
2021/03/15 03:38:25;;;;;;;12.90;5.18;;;;;;;3.39;100.00;99909.56;20821882;28;20555;-72
2021/03/15 03:48:28;;;;;;;10.65;4.28;;;;;;;3.49;100.00;99904.94;20821751;28;20166;-72
2021/03/15 03:58:34;;;;;;;19.23;4.50;;;;;;;3.57;100.00;99883.97;20820517;28;20052;-73
2021/03/15 04:08:48;;;;;;;16.45;4.53;;;;;;;3.70;100.00;99885.25;20819905;28;20471;-72
2021/03/15 04:18:51;;;;;;;14.40;5.20;;;;;;;3.74;100.00;99889.41;20743242;28;20104;-71
2021/03/15 04:28:56;;;;;;;10.88;3.50;;;;;;;3.72;100.00;99886.03;20736594;28;20045;-71
2021/03/15 04:38:58;;;;;;;8.60;4.40;;;;;;;3.72;100.00;99861.00;20735731;28;20052;-73
2021/03/15 04:49:06;;;;;;;10.73;4.38;;;;;;;3.79;100.00;99852.13;20735731;28;20579;-74
2021/03/15 04:59:09;;;;;;;11.95;4.32;;;;;;;3.72;100.00;99844.63;20736333;28;20224;-73
2021/03/15 05:09:13;;;;;;;9.73;4.05;;;;;;;3.62;100.00;99838.06;20746821;28;20042;-74
2021/03/15 05:19:14;;;;;;;9.65;4.13;;;;;;;3.73;100.00;99830.78;20751279;28;20046;-74
2021/03/15 05:29:17;;;;;;;9.05;3.72;;;;;;;3.55;100.00;99829.72;20750654;28;20045;-74
2021/03/15 05:39:18;;;;;;;10.40;3.45;;;;;;;3.61;100.00;99801.00;20750956;28;20050;-74
2021/03/15 05:49:37;;;;;;;8.07;3.03;;;;;;;3.41;100.00;99799.13;20753062;28;20046;-73
2021/03/15 06:00:00;;;;;;;6.13;2.70;;;;;;;3.45;100.00;99784.34;20756780;28;20058;-74
2021/03/15 06:10:06;;;;;;;5.60;2.13;;;;;;;3.46;100.00;99762.75;20771332;28;20049;-72
2021/03/15 06:20:07;;;;;;;;;;;;;;;3.40;100.00;99756.03;20758917;28;20080;-73
2021/03/15 06:30:08;;;;;;;6.53;3.00;;;;;;;3.48;100.00;99742.84;20743150;28;20417;-74
2021/03/15 06:40:12;;;;;;;9.48;3.15;;;;;;;3.61;100.00;99753.59;20726333;28;20096;-75
2021/03/15 06:50:14;;;;;;;5.07;2.20;;;;;;;3.62;100.00;99743.19;20742780;28;20072;-74
2021/03/15 07:00:20;;;;;;;6.25;2.65;;;;;;;3.71;100.00;99757.53;20800057;23;20053;-69
2021/03/15 07:10:32;;;;;;;4.13;2.03;;;;;;;3.86;100.00;99764.72;20823000;28;20485;-69
2021/03/15 07:20:47;;;;;;;5.15;1.98;;;;;;;3.87;100.00;99763.84;20821773;28;20045;-69
2021/03/15 07:30:48;;;;;;;3.67;1.40;;;;;;;4.15;100.00;99767.09;20819730;28;20045;-70
2021/03/15 07:40:49;;;;;;;4.50;1.45;;;;;;;4.25;100.00;99771.00;20825792;28;21492;-69
2021/03/15 07:50:57;;;;;;;5.85;1.38;;;;;;;4.42;100.00;99779.88;20823606;28;20085;-69
2021/03/15 08:01:00;;;;;;;2.97;1.30;;;;;;;4.42;100.00;99795.44;20822383;28;20049;-69
2021/03/15 08:11:03;;;;;;;2.33;1.13;;;;;;;4.69;100.00;99810.72;20817463;28;20053;-71
2021/03/15 08:21:09;;;;;;;3.50;1.70;;;;;;;4.81;100.00;99826.69;20801155;28;20053;-69
2021/03/15 08:31:22;;;;;;;4.80;1.80;;;;;;;4.91;100.00;99843.56;20819856;28;20128;-69
2021/03/15 08:41:27;;;;;;;8.88;4.10;;;;;;;4.98;100.00;99845.84;20826920;28;20047;-70
2021/03/15 08:51:34;;;;;;;3.92;1.70;;;;;;;5.16;100.00;99845.13;20835497;28;20053;-70
2021/03/15 09:01:53;;;;;;;5.78;2.30;;;;;;;5.37;100.00;99852.91;20833738;28;20076;-70
2021/03/15 09:12:00;;;;;;;8.60;2.22;;;;;;;5.12;100.00;99853.94;20816467;28;20081;-71
2021/03/15 09:22:03;;;;;;;6.25;2.58;;;;;;;5.18;100.00;99863.22;20833137;28;20128;-70
2021/03/15 09:32:06;;;;;;;5.25;2.25;;;;;;;5.20;100.00;99869.16;20831782;28;20091;-71
2021/03/15 09:42:08;;;;;;;5.00;2.30;;;;;;;5.41;100.00;99883.00;20891919;28;20059;-69
2021/03/15 09:52:15;;;;;;;5.75;1.98;;;;;;;5.92;100.00;99890.38;20895767;28;20072;-69
2021/03/15 10:02:27;;;;;;;4.57;2.45;;;;;;;6.28;100.00;99898.31;20901778;28;20046;-67
2021/03/15 10:12:28;;;;;;;4.43;2.40;;;;;;;6.73;100.00;99897.97;20828960;28;20085;-68
2021/03/15 10:22:30;;;;;;;4.40;2.08;;;;;;;6.93;98.26;99915.25;20828510;28;20158;-68
2021/03/15 10:32:31;;;;;;;3.67;1.40;;;;;;;6.98;92.25;99921.06;20809600;28;20504;-69
2021/03/15 10:42:36;;;;;;;3.80;0.70;;;;;;;6.96;86.41;99928.94;20827162;28;20046;-67
2021/03/15 10:52:37;;;;;;;1.17;0.60;;;;;;;7.36;84.44;99937.47;20826074;28;20057;-68
2021/03/15 11:02:44;;;;;;;1.85;0.52;;;;;;;7.47;76.54;99950.78;20824203;28;20568;-69
2021/03/15 11:12:47;;;;;;;2.05;0.70;;;;;;;7.89;74.05;99963.47;20825061;28;20536;-68
2021/03/15 11:22:51;;;;;;;2.38;0.80;;;;;;;8.08;72.13;99966.81;20824141;28;20049;-69
2021/03/15 11:33:00;;;;;;;2.65;0.90;;;;;;;7.48;73.15;99979.38;20805715;28;20057;-69
2021/03/15 11:43:02;;;;;;;3.15;0.93;;;;;;;7.60;83.63;99984.00;20805081;28;20371;-68
2021/03/15 11:53:05;;;;;;;2.08;0.90;;;;;;;7.82;77.53;99975.97;20822249;28;20103;-68
2021/03/15 12:03:06;;;;;;;1.50;0.77;;;;;;;7.90;75.09;99978.19;20819894;28;20061;-69
2021/03/15 12:13:07;;;;;;;3.33;1.30;;;;;;;8.28;69.41;99964.03;20819128;28;20492;-69
2021/03/15 12:23:09;;;;;;;3.65;1.13;;;;;;;8.68;66.90;99973.28;20838221;28;20046;-69
2021/03/15 12:33:10;;;;;;;2.80;1.13;;;;;;;8.56;67.05;99981.75;20810183;28;20519;-69
2021/03/15 12:43:10;;;;;;;4.50;1.45;;;;;;;7.56;70.11;99992.88;20836799;28;20061;-69
2021/03/15 12:53:20;;;;;;;2.10;1.08;;;;;;;7.96;69.74;99996.97;20770195;28;20044;-70
2021/03/15 13:03:21;;;;;;;3.20;1.27;;;;;;;8.56;67.42;99987.81;20898565;28;20099;-69
2021/03/15 13:13:22;;;;;;;2.78;1.00;;;;;;;8.82;58.68;99990.78;20894327;28;20095;-70
2021/03/15 13:23:39;;;;;;;3.78;0.90;;;;;;;9.30;59.36;99987.25;20817672;28;20053;-70
2021/03/15 13:33:40;;;;;;;3.58;1.00;;;;;;;9.50;56.38;99996.63;20832977;28;20041;-70
2021/03/15 13:43:43;;;;;;;3.10;0.73;;;;;;;9.44;53.93;99995.19;20832349;28;20045;-70
2021/03/15 13:53:45;;;;;;;3.83;0.60;;;;;;;9.12;54.25;99996.13;20831076;28;20050;-70
2021/03/15 14:03:46;;;;;;;1.90;0.63;;;;;;;9.47;52.36;100007.22;20829519;28;20049;-69
2021/03/15 14:13:47;;;;;;;4.35;1.05;;;;;;;9.57;50.50;100003.16;20830364;28;20065;-69
2021/03/15 14:23:48;;;;;;;2.33;1.30;;;;;;;9.28;51.92;100012.63;20828478;28;20045;-69
2021/03/15 14:33:49;;;;;;;5.45;0.88;;;;;;;9.84;49.77;100007.69;20828388;28;20049;-70
2021/03/15 14:43:55;;;;;;;6.03;0.90;;;;;;;9.95;50.44;100020.13;20810256;28;20073;-70
2021/03/15 14:53:56;;;;;;;3.72;0.70;;;;;;;9.81;50.10;100014.84;20826882;28;20053;-69
2021/03/15 15:03:57;;;;;;;2.95;0.82;;;;;;;9.45;51.12;100026.44;20825535;28;20405;-70
2021/03/15 15:13:59;;;;;;;2.05;0.63;;;;;;;9.48;51.56;100027.19;20824705;28;20049;-69
2021/03/15 15:24:00;;;;;;;2.70;0.80;;;;;;;9.44;50.57;100056.13;20824171;28;20049;-69
2021/03/15 15:34:01;;;;;;;2.10;0.70;;;;;;;9.47;51.29;100054.25;20805543;28;20568;-69
2021/03/15 15:44:02;;;;;;;4.50;1.08;;;;;;;8.99;53.54;100069.03;20822772;28;20053;-68
2021/03/15 15:54:04;;;;;;;3.17;0.77;;;;;;;8.96;54.37;100074.41;20804467;28;20065;-69
2021/03/15 16:04:05;;;;;;;4.28;0.70;;;;;;;8.07;61.39;100124.16;20803927;28;20053;-68
2021/03/15 16:14:07;;;;;;;4.57;1.25;;;;;;;7.15;71.16;100153.59;20804530;28;20052;-69
2021/03/15 16:24:08;;;;;;;2.95;1.10;;;;;;;6.84;75.37;100184.44;20820380;28;20096;-68
2021/03/15 16:34:09;;;;;;;2.97;0.85;;;;;;;6.45;81.84;100176.53;20820070;28;20087;-68
2021/03/15 16:44:11;;;;;;;2.17;0.80;;;;;;;6.42;82.82;100174.06;20820639;28;20448;-68
2021/03/15 16:54:12;;;;;;;2.35;0.90;;;;;;;6.36;82.64;100187.31;20819817;28;20096;-69
2021/03/15 17:04:13;;;;;;;2.55;1.08;;;;;;;6.42;84.83;100200.06;20827722;28;20056;-68
2021/03/15 17:14:14;;;;;;;5.00;1.50;;;;;;;6.43;80.39;100225.16;20819590;28;20152;-69
2021/03/15 17:24:15;;;;;;;2.40;1.02;;;;;;;6.28;79.65;100250.00;20829007;28;20049;-68
2021/03/15 17:34:16;;;;;;;2.78;1.00;;;;;;;6.06;82.07;100264.72;20881042;28;20404;-69
2021/03/15 17:44:17;;;;;;;4.05;1.48;;;;;;;5.79;84.72;100274.34;20829563;28;20045;-68
2021/03/15 17:54:18;;;;;;;4.85;1.55;;;;;;;5.57;84.04;100283.84;20831800;28;20489;-69
2021/03/15 18:04:19;;;;;;;2.58;1.10;;;;;;;5.45;82.71;100299.84;20829933;28;20048;-68
2021/03/15 18:14:20;;;;;;;3.42;1.45;;;;;;;5.44;80.74;100300.72;20865941;28;20464;-68
2021/03/15 18:24:21;;;;;;;2.28;0.90;;;;;;;5.54;78.12;100305.56;20829329;28;20489;-68
2021/03/15 18:34:22;;;;;;;5.03;1.17;;;;;;;5.37;79.96;100335.59;20830582;28;20069;-68
2021/03/15 18:44:23;;;;;;;3.28;1.20;;;;;;;5.16;80.82;100340.59;20826878;28;20049;-68
2021/03/15 18:54:24;;;;;;;6.32;2.15;;;;;;;5.06;81.35;100367.75;20825348;28;20044;-67
2021/03/15 19:04:26;;;;;;;7.18;3.60;;;;;;;4.86;83.81;100374.47;20841110;28;20037;-68
2021/03/15 19:14:28;;;;;;;8.05;3.47;;;;;;;4.58;86.89;100383.06;20851642;28;20420;-69
2021/03/15 19:24:29;;;;;;;7.28;3.85;;;;;;;4.45;89.07;100406.81;20837758;28;20060;-67
2021/03/15 19:34:30;;;;;;;10.60;4.80;;;;;;;4.35;90.62;100416.59;20830983;28;20037;-67
2021/03/15 19:44:31;;;;;;;7.82;3.42;;;;;;;4.56;88.98;100409.94;20893313;28;20075;-67
2021/03/15 19:54:33;;;;;;;8.40;3.15;;;;;;;4.56;89.55;100423.75;20911171;28;20053;-68
2021/03/15 20:04:34;;;;;;;6.80;3.25;;;;;;;4.57;89.83;100429.78;20898021;28;20099;-68
2021/03/15 20:14:35;;;;;;;7.45;2.90;;;;;;;4.60;88.68;100443.50;20863586;28;20056;-69
2021/03/15 20:24:37;;;;;;;11.60;3.63;;;;;;;4.71;88.20;100474.31;20825524;28;20045;-69
2021/03/15 20:34:38;;;;;;;9.57;3.80;;;;;;;4.81;87.57;100490.44;20896976;28;20443;-68
2021/03/15 20:44:39;;;;;;;7.03;2.15;;;;;;;4.96;81.73;100492.59;20919459;28;20056;-68
2021/03/15 20:54:40;;;;;;;4.22;1.38;;;;;;;5.00;80.50;100501.97;20918314;28;20041;-68
2021/03/15 21:04:41;;;;;;;8.07;1.52;;;;;;;5.20;76.93;100506.53;20919523;28;20049;-68
2021/03/15 21:14:42;;;;;;;7.70;2.97;;;;;;;5.09;80.91;100520.69;20885227;28;20049;-69
2021/03/15 21:24:43;;;;;;;6.65;2.53;;;;;;;5.10;80.88;100529.31;20869672;28;20052;-68
2021/03/15 21:34:44;;;;;;;8.18;3.85;;;;;;;4.78;85.33;100532.84;20914883;28;20412;-69
2021/03/15 21:44:46;;;;;;;7.97;3.20;;;;;;;4.71;86.96;100544.31;20873789;28;20073;-69
2021/03/15 21:54:48;;;;;;;11.90;4.40;;;;;;;4.75;87.60;100558.88;20832856;28;20576;-69
2021/03/15 22:04:49;;;;;;;7.80;3.70;;;;;;;4.79;86.60;100555.31;20844442;28;20049;-69
2021/03/15 22:14:52;;;;;;;10.95;3.95;;;;;;;4.77;86.23;100569.22;20886490;28;20041;-70
2021/03/15 22:24:53;;;;;;;9.50;3.60;;;;;;;4.63;85.40;100562.66;20905705;28;20087;-69
2021/03/15 22:34:54;;;;;;;9.73;3.42;;;;;;;4.56;86.19;100578.44;20890614;28;20036;-70
2021/03/15 22:44:55;;;;;;;8.57;3.00;;;;;;;4.70;83.44;100584.09;20898384;28;20152;-70
2021/03/15 22:54:57;;;;;;;5.95;2.45;;;;;;;4.72;82.72;100603.06;20910941;28;20503;-70
2021/03/15 23:04:58;;;;;;;5.07;2.35;;;;;;;4.82;81.91;100601.06;20844664;28;20054;-69
2021/03/15 23:14:58;;;;;;;12.63;2.35;;;;;;;4.76;81.28;100604.66;20822355;28;20049;-69
2021/03/15 23:25:00;;;;;;;6.10;2.20;;;;;;;4.58;82.10;100615.50;20931954;22;20036;-71
2021/03/15 23:35:01;;;;;;;8.10;2.40;;;;;;;4.56;82.18;100632.84;20987392;28;20056;-70
2021/03/15 23:45:03;;;;;;;9.45;2.78;;;;;;;4.62;81.38;100646.50;20987132;28;20514;-69
2021/03/15 23:55:06;;;;;;;11.60;2.70;;;;;;;4.72;81.24;100671.28;20986715;28;20081;-69
